sensor_id;sensor_type;location;lat;lon;timestamp;temperature;humidity
64561;DHT22;50960;46.838;16.838;2022-10-03T03:35:56;11.10;99.90
64561;DHT22;50960;46.838;16.838;2022-10-03T03:44:29;11.40;99.90
64561;DHT22;50960;46.838;16.838;2022-10-03T03:55:52;11.70;99.90
64561;DHT22;50960;46.838;16.838;2022-10-03T04:01:22;11.70;99.90
64561;DHT22;50960;46.838;16.838;2022-10-03T04:07:14;11.80;99.90
64561;DHT22;50960;46.838;16.838;2022-10-03T04:10:02;11.90;99.90
64561;DHT22;50960;46.838;16.838;2022-10-03T04:43:34;11.90;99.90
64561;DHT22;50960;46.838;16.838;2022-10-03T14:35:35;21.20;37.80
64561;DHT22;50960;46.838;16.838;2022-10-03T14:38:22;21.50;37.60
64561;DHT22;50960;46.838;16.838;2022-10-03T14:41:21;22.40;37.40
64561;DHT22;50960;46.838;16.838;2022-10-03T14:43:54;22.10;37.80
64561;DHT22;50960;46.838;16.838;2022-10-03T14:46:26;21.50;38.80
64561;DHT22;50960;46.838;16.838;2022-10-03T14:48:59;20.80;39.20
64561;DHT22;50960;46.838;16.838;2022-10-03T14:51:39;20.60;40.70
64561;DHT22;50960;46.838;16.838;2022-10-03T14:54:19;20.40;42.10
64561;DHT22;50960;46.838;16.838;2022-10-03T14:56:47;19.90;42.10
64561;DHT22;50960;46.838;16.838;2022-10-03T14:59:20;20.20;41.90
64561;DHT22;50960;46.838;16.838;2022-10-03T15:01:50;19.90;42.30
64561;DHT22;50960;46.838;16.838;2022-10-03T15:04:27;19.90;42.10
64561;DHT22;50960;46.838;16.838;2022-10-03T15:06:57;20.20;42.50
64561;DHT22;50960;46.838;16.838;2022-10-03T15:09:39;20.40;41.40
64561;DHT22;50960;46.838;16.838;2022-10-03T15:14:38;21.30;40.20
64561;DHT22;50960;46.838;16.838;2022-10-03T15:17:28;21.20;41.60
64561;DHT22;50960;46.838;16.838;2022-10-03T15:19:56;21.10;41.70
64561;DHT22;50960;46.838;16.838;2022-10-03T15:22:34;20.70;43.20
64561;DHT22;50960;46.838;16.838;2022-10-03T15:27:34;20.70;45.30
64561;DHT22;50960;46.838;16.838;2022-10-03T15:30:03;21.30;43.90
64561;DHT22;50960;46.838;16.838;2022-10-03T15:32:38;21.70;44.50
64561;DHT22;50960;46.838;16.838;2022-10-03T15:35:17;21.60;43.70
64561;DHT22;50960;46.838;16.838;2022-10-03T15:37:46;23.60;42.50
64561;DHT22;50960;46.838;16.838;2022-10-03T15:40:32;26.50;38.00
64561;DHT22;50960;46.838;16.838;2022-10-03T15:43:05;27.00;36.00
64561;DHT22;50960;46.838;16.838;2022-10-03T15:45:34;27.80;35.10
64561;DHT22;50960;46.838;16.838;2022-10-03T15:48:05;27.40;36.40
64561;DHT22;50960;46.838;16.838;2022-10-03T15:50:38;25.80;37.50
64561;DHT22;50960;46.838;16.838;2022-10-03T15:53:18;23.50;39.90
64561;DHT22;50960;46.838;16.838;2022-10-03T15:56:12;22.70;43.10
64561;DHT22;50960;46.838;16.838;2022-10-03T15:58:51;21.70;44.30
64561;DHT22;50960;46.838;16.838;2022-10-03T16:01:24;20.90;46.50
64561;DHT22;50960;46.838;16.838;2022-10-03T16:04:00;20.70;47.20
64561;DHT22;50960;46.838;16.838;2022-10-03T16:09:50;20.00;49.10
64561;DHT22;50960;46.838;16.838;2022-10-03T16:15:15;18.50;51.80
64561;DHT22;50960;46.838;16.838;2022-10-03T16:20:37;17.60;55.00
64561;DHT22;50960;46.838;16.838;2022-10-03T16:26:17;16.80;57.30
64561;DHT22;50960;46.838;16.838;2022-10-03T16:28:48;16.60;57.80
64561;DHT22;50960;46.838;16.838;2022-10-03T16:31:25;16.50;58.30
64561;DHT22;50960;46.838;16.838;2022-10-03T16:34:02;16.20;59.10
64561;DHT22;50960;46.838;16.838;2022-10-03T16:36:31;16.00;60.00
64561;DHT22;50960;46.838;16.838;2022-10-03T16:39:25;15.80;60.20
64561;DHT22;50960;46.838;16.838;2022-10-03T16:41:54;15.70;60.70
64561;DHT22;50960;46.838;16.838;2022-10-03T16:44:25;15.50;61.00
64561;DHT22;50960;46.838;16.838;2022-10-03T16:46:54;15.50;61.40
64561;DHT22;50960;46.838;16.838;2022-10-03T16:52:14;15.30;62.50
64561;DHT22;50960;46.838;16.838;2022-10-03T16:54:44;15.10;63.20
64561;DHT22;50960;46.838;16.838;2022-10-03T16:57:18;15.00;63.80
64561;DHT22;50960;46.838;16.838;2022-10-03T16:59:47;14.90;63.60
64561;DHT22;50960;46.838;16.838;2022-10-03T17:02:25;14.80;64.20
64561;DHT22;50960;46.838;16.838;2022-10-03T17:05:00;14.80;65.10
64561;DHT22;50960;46.838;16.838;2022-10-03T17:07:38;14.70;67.40
64561;DHT22;50960;46.838;16.838;2022-10-03T17:10:35;14.60;67.50
64561;DHT22;50960;46.838;16.838;2022-10-03T17:13:36;14.50;69.90
64561;DHT22;50960;46.838;16.838;2022-10-03T17:18:48;14.30;70.00
64561;DHT22;50960;46.838;16.838;2022-10-03T17:21:22;14.20;69.60
64561;DHT22;50960;46.838;16.838;2022-10-03T17:24:10;14.10;68.60
64561;DHT22;50960;46.838;16.838;2022-10-03T17:26:43;14.00;68.90
64561;DHT22;50960;46.838;16.838;2022-10-03T17:29:44;13.90;69.80
64561;DHT22;50960;46.838;16.838;2022-10-03T17:32:22;13.80;71.80
64561;DHT22;50960;46.838;16.838;2022-10-03T17:35:17;13.70;73.10
64561;DHT22;50960;46.838;16.838;2022-10-03T17:51:41;13.30;79.30
64561;DHT22;50960;46.838;16.838;2022-10-03T17:54:14;13.20;77.60
64561;DHT22;50960;46.838;16.838;2022-10-03T17:57:05;13.30;77.00
64561;DHT22;50960;46.838;16.838;2022-10-03T18:00:05;13.20;77.10
64561;DHT22;50960;46.838;16.838;2022-10-03T18:12:50;13.30;73.00
64561;DHT22;50960;46.838;16.838;2022-10-03T18:15:42;13.40;71.00
64561;DHT22;50960;46.838;16.838;2022-10-03T18:18:22;13.40;73.10
64561;DHT22;50960;46.838;16.838;2022-10-03T18:26:39;13.40;75.00
64561;DHT22;50960;46.838;16.838;2022-10-03T18:29:48;13.30;76.50
64561;DHT22;50960;46.838;16.838;2022-10-03T18:34:44;13.30;75.70
64561;DHT22;50960;46.838;16.838;2022-10-03T18:41:08;13.20;74.90
64561;DHT22;50960;46.838;16.838;2022-10-03T18:43:28;13.10;76.20
64561;DHT22;50960;46.838;16.838;2022-10-03T18:46:01;13.10;76.10
64561;DHT22;50960;46.838;16.838;2022-10-03T18:48:36;13.10;75.60
64561;DHT22;50960;46.838;16.838;2022-10-03T18:54:08;13.10;73.00
64561;DHT22;50960;46.838;16.838;2022-10-03T20:22:46;11.60;76.60
64561;DHT22;50960;46.838;16.838;2022-10-03T20:25:53;11.90;73.70
64561;DHT22;50960;46.838;16.838;2022-10-03T20:28:38;12.00;71.30
64561;DHT22;50960;46.838;16.838;2022-10-03T20:31:06;12.40;70.00
64561;DHT22;50960;46.838;16.838;2022-10-03T20:33:34;12.30;69.40
64561;DHT22;50960;46.838;16.838;2022-10-03T20:36:12;12.40;68.10
64561;DHT22;50960;46.838;16.838;2022-10-03T20:50:07;12.40;67.30
